Time;durP1;ratioP1;P1;durP2;ratioP2;P2;SDS_P1;SDS_P2;PMS_P1;PMS_P2;Temp;Humidity;BMP_temperature;BMP_pressure;BME280_temperature;BME280_humidity;BME280_pressure;Samples;Min_cycle;Max_cycle;Signal;HPM_P1;HPM_P2
2022/02/26 00:02:03;;;;;;;5.25;2.00;;;3.30;99.90;;;;;;1864805;77;21028;-75
2022/02/26 00:04:30;;;;;;;8.40;2.40;;;3.40;99.90;;;;;;1863011;77;21040;-76
2022/02/26 00:06:59;;;;;;;6.00;2.67;;;3.40;99.90;;;;;;1862970;77;21460;-76
2022/02/26 00:09:27;;;;;;;7.08;2.60;;;3.40;99.90;;;;;;1863008;77;21559;-75
2022/02/26 00:11:56;;;;;;;4.62;2.25;;;3.50;99.90;;;;;;1862963;77;21010;-76
2022/02/26 00:14:23;;;;;;;4.83;2.10;;;3.50;99.90;;;;;;1863154;77;21031;-76
2022/02/26 00:16:53;;;;;;;5.85;1.92;;;3.60;99.90;;;;;;1862916;77;21490;-74
2022/02/26 00:19:22;;;;;;;6.83;2.30;;;3.70;99.90;;;;;;1862704;77;21389;-76
2022/02/26 00:21:50;;;;;;;5.75;1.90;;;3.70;99.90;;;;;;1862620;77;21143;-76
2022/02/26 00:24:19;;;;;;;7.33;2.77;;;3.80;99.90;;;;;;1862975;77;21068;-77
2022/02/26 00:26:46;;;;;;;7.70;2.33;;;3.90;99.90;;;;;;1862391;77;21091;-76
2022/02/26 00:29:13;;;;;;;7.40;2.70;;;3.90;99.90;;;;;;1862388;77;21091;-76
2022/02/26 00:31:41;;;;;;;8.90;2.62;;;4.00;99.90;;;;;;1862360;77;21440;-76
2022/02/26 00:34:08;;;;;;;6.15;1.80;;;4.00;99.90;;;;;;1862518;77;21037;-76
2022/02/26 00:36:35;;;;;;;7.08;2.20;;;4.00;99.90;;;;;;1862568;77;21394;-76
2022/02/26 00:39:03;;;;;;;6.65;2.58;;;4.10;99.90;;;;;;1862260;77;21115;-76
2022/02/26 00:41:30;;;;;;;4.67;2.33;;;4.10;99.90;;;;;;1862403;77;21481;-74
2022/02/26 00:43:58;;;;;;;7.17;2.10;;;4.10;99.90;;;;;;1862423;77;21041;-76
2022/02/26 00:46:26;;;;;;;8.80;2.12;;;4.10;99.90;;;;;;1862282;77;21017;-76
2022/02/26 00:51:38;;;;;;;5.20;1.77;;;4.10;99.90;;;;;;1862268;77;21081;-77
2022/02/26 00:54:15;;;;;;;5.22;2.10;;;4.10;99.90;;;;;;1862362;77;21540;-76
2022/02/26 00:56:44;;;;;;;9.03;2.02;;;4.10;99.90;;;;;;1862540;77;21441;-77
2022/02/26 00:59:11;;;;;;;9.28;2.27;;;4.10;99.90;;;;;;1862508;77;21107;-76
2022/02/26 01:01:38;;;;;;;7.47;1.95;;;4.10;99.90;;;;;;1862450;77;21040;-76
2022/02/26 01:04:06;;;;;;;6.12;2.20;;;4.20;99.90;;;;;;1862512;77;21064;-76
2022/02/26 01:06:35;;;;;;;7.17;2.47;;;4.10;99.90;;;;;;1862350;77;21072;-77
2022/02/26 01:09:07;;;;;;;7.42;2.25;;;4.20;99.90;;;;;;1854929;76;21020;-76
2022/02/26 01:11:34;;;;;;;7.80;2.42;;;4.20;99.90;;;;;;1865412;77;21061;-76
2022/02/26 01:14:02;;;;;;;8.30;2.30;;;4.20;99.90;;;;;;1865604;77;21036;-76
2022/02/26 01:16:29;;;;;;;6.75;2.47;;;4.20;99.90;;;;;;1865654;77;21045;-77
2022/02/26 01:18:56;;;;;;;8.45;2.05;;;4.20;99.90;;;;;;1865709;77;21100;-77
2022/02/26 01:21:25;;;;;;;4.37;1.85;;;4.20;99.90;;;;;;1855679;76;21063;-77
2022/02/26 01:23:54;;;;;;;4.85;2.35;;;4.20;99.90;;;;;;1871019;76;21108;-76
2022/02/26 01:26:22;;;;;;;4.65;1.80;;;4.20;99.90;;;;;;1895644;76;21011;-77
2022/02/26 01:28:49;;;;;;;6.28;2.47;;;4.10;99.90;;;;;;1895616;76;21042;-77
2022/02/26 01:31:16;;;;;;;6.80;2.25;;;4.20;99.90;;;;;;1859327;76;21072;-77
2022/02/26 01:33:44;;;;;;;7.45;2.02;;;4.20;99.90;;;;;;1896126;76;21112;-76
2022/02/26 01:36:11;;;;;;;9.45;2.40;;;4.20;99.90;;;;;;1895966;75;21486;-77
2022/02/26 01:38:39;;;;;;;6.28;2.85;;;4.20;99.90;;;;;;1895883;75;21111;-77
2022/02/26 01:41:08;;;;;;;10.03;2.55;;;4.30;99.90;;;;;;1895775;75;21429;-76
2022/02/26 01:43:37;;;;;;;8.60;2.67;;;4.20;99.90;;;;;;1895739;75;21463;-76
2022/02/26 01:46:06;;;;;;;5.97;2.25;;;4.20;99.90;;;;;;1895759;75;21111;-76
2022/02/26 01:48:39;;;;;;;7.67;2.87;;;4.20;99.90;;;;;;1895947;75;21042;-77
2022/02/26 01:51:07;;;;;;;10.72;2.70;;;4.10;99.90;;;;;;1895463;75;21082;-75
2022/02/26 01:53:35;;;;;;;5.72;2.42;;;4.20;99.90;;;;;;1861000;77;21045;-76
2022/02/26 01:56:04;;;;;;;4.90;2.12;;;4.10;99.90;;;;;;1861871;77;21013;-76
2022/02/26 01:58:31;;;;;;;16.82;2.85;;;4.10;99.90;;;;;;1862169;77;21129;-77
2022/02/26 02:00:58;;;;;;;4.85;2.30;;;4.10;99.90;;;;;;1862012;77;21018;-76
2022/02/26 02:03:27;;;;;;;11.30;3.25;;;4.10;99.90;;;;;;1862037;77;21153;-77
2022/02/26 02:05:59;;;;;;;10.32;2.17;;;4.10;99.90;;;;;;1876994;76;21128;-77
2022/02/26 02:08:26;;;;;;;5.60;2.17;;;4.10;99.90;;;;;;1895658;76;21158;-76
2022/02/26 02:10:54;;;;;;;11.70;2.90;;;4.00;99.90;;;;;;1896037;76;21088;-76
2022/02/26 02:13:21;;;;;;;12.40;2.47;;;4.00;99.90;;;;;;1896448;76;21543;-76
2022/02/26 02:15:50;;;;;;;12.98;2.72;;;3.90;99.90;;;;;;1895672;76;21030;-76
2022/02/26 02:18:18;;;;;;;9.78;2.87;;;3.90;99.90;;;;;;1895867;75;21105;-75
2022/02/26 02:20:45;;;;;;;6.78;2.55;;;4.00;99.90;;;;;;1895739;76;21161;-74
2022/02/26 02:23:14;;;;;;;7.50;2.45;;;3.90;99.90;;;;;;1895680;76;21143;-76
2022/02/26 02:25:41;;;;;;;6.20;2.10;;;3.90;99.90;;;;;;1895738;75;21038;-77
2022/02/26 02:28:09;;;;;;;8.15;2.85;;;3.80;99.90;;;;;;1895711;75;21050;-77
2022/02/26 02:30:36;;;;;;;9.35;2.67;;;3.70;99.90;;;;;;1895601;75;21418;-74
2022/02/26 02:33:05;;;;;;;9.03;2.80;;;3.80;99.90;;;;;;1895616;76;21037;-75
2022/02/26 02:36:09;;;;;;;4.80;1.92;;;3.70;99.90;;;;;;1895787;76;21050;-77
2022/02/26 02:38:36;;;;;;;9.40;2.50;;;3.70;99.90;;;;;;1895883;75;21091;-75
2022/02/26 02:41:03;;;;;;;8.35;2.27;;;3.80;99.90;;;;;;1895770;75;21103;-75
2022/02/26 02:43:32;;;;;;;5.12;2.40;;;3.70;99.90;;;;;;1895599;76;21054;-76
2022/02/26 02:46:00;;;;;;;4.90;2.27;;;3.70;99.90;;;;;;1895882;76;21026;-77
2022/02/26 02:48:27;;;;;;;4.67;2.20;;;3.70;99.90;;;;;;1895813;75;21166;-77
2022/02/26 02:50:55;;;;;;;17.30;2.83;;;3.60;99.90;;;;;;1895712;75;21034;-76
2022/02/26 02:53:22;;;;;;;6.00;2.35;;;3.70;99.90;;;;;;1895693;76;21099;-77
2022/02/26 02:55:50;;;;;;;14.23;2.98;;;3.70;99.90;;;;;;1895667;75;21029;-76
2022/02/26 02:58:23;;;;;;;13.40;3.20;;;3.70;99.90;;;;;;1895826;75;21057;-76
2022/02/26 03:00:51;;;;;;;8.20;2.75;;;3.60;99.90;;;;;;1859064;75;21038;-76
2022/02/26 03:03:18;;;;;;;7.03;2.83;;;3.60;99.90;;;;;;1895750;75;21096;-75
2022/02/26 03:05:46;;;;;;;7.15;2.30;;;3.70;99.90;;;;;;1895710;76;21084;-75
2022/02/26 03:08:13;;;;;;;13.78;3.08;;;3.70;99.90;;;;;;1895695;76;21042;-75
2022/02/26 03:10:40;;;;;;;6.17;2.40;;;3.70;99.90;;;;;;1895728;76;21197;-75
2022/02/26 03:13:08;;;;;;;12.60;3.40;;;3.70;99.90;;;;;;1895620;76;21078;-76
2022/02/26 03:15:35;;;;;;;9.73;3.05;;;3.70;99.90;;;;;;1895734;76;21038;-75
2022/02/26 03:18:02;;;;;;;12.88;3.20;;;3.70;99.90;;;;;;1895657;76;21095;-75
2022/02/26 03:20:30;;;;;;;4.28;2.80;;;3.70;99.90;;;;;;1895772;76;21050;-75
2022/02/26 03:22:57;;;;;;;6.30;2.87;;;3.70;99.90;;;;;;1895764;76;21166;-75
2022/02/26 03:25:24;;;;;;;5.92;2.80;;;3.70;99.90;;;;;;1895757;76;21038;-75
2022/02/26 03:27:52;;;;;;;5.62;3.17;;;3.70;99.90;;;;;;1895847;75;21033;-75
2022/02/26 03:30:19;;;;;;;5.92;3.08;;;3.70;99.90;;;;;;1895900;76;21011;-75
2022/02/26 03:32:46;;;;;;;8.40;3.00;;;3.70;99.90;;;;;;1896276;76;21436;-75
2022/02/26 03:35:14;;;;;;;9.95;3.35;;;3.80;99.90;;;;;;1898321;76;21096;-76
2022/02/26 03:37:41;;;;;;;10.90;3.60;;;3.80;99.90;;;;;;1898629;75;21100;-75
2022/02/26 03:40:10;;;;;;;7.15;3.22;;;3.80;99.90;;;;;;1895798;76;21441;-75
2022/02/26 03:42:37;;;;;;;6.72;3.25;;;3.80;99.90;;;;;;1895791;76;21023;-75
2022/02/26 03:45:05;;;;;;;11.78;3.80;;;3.80;99.90;;;;;;1895597;75;21034;-75
2022/02/26 03:47:32;;;;;;;7.67;3.00;;;3.80;99.90;;;;;;1895682;76;21103;-75
2022/02/26 03:50:00;;;;;;;7.75;4.00;;;3.70;99.90;;;;;;1895782;75;21108;-75
2022/02/26 03:52:27;;;;;;;12.43;4.62;;;3.70;99.90;;;;;;1895652;76;21034;-76
2022/02/26 03:54:55;;;;;;;14.15;4.50;;;3.70;99.90;;;;;;1895756;76;21030;-76
2022/02/26 03:57:23;;;;;;;10.60;4.08;;;3.60;99.90;;;;;;1895772;76;21123;-76
2022/02/26 03:59:50;;;;;;;12.28;5.40;;;3.60;99.90;;;;;;1895698;76;21038;-76
2022/02/26 04:02:17;;;;;;;10.05;4.90;;;3.50;99.90;;;;;;1895739;76;21478;-75
2022/02/26 04:04:45;;;;;;;10.20;4.62;;;3.60;99.90;;;;;;1895851;76;21070;-74
2022/02/26 04:07:12;;;;;;;10.63;4.50;;;3.50;99.90;;;;;;1895677;75;21030;-75
2022/02/26 04:09:39;;;;;;;9.58;4.60;;;3.50;99.90;;;;;;1895738;75;21438;-75
2022/02/26 04:12:08;;;;;;;9.95;4.72;;;3.40;99.90;;;;;;1895690;75;21038;-76
2022/02/26 04:14:35;;;;;;;12.82;4.53;;;3.40;99.90;;;;;;1895689;75;21103;-75
2022/02/26 04:17:02;;;;;;;11.15;4.35;;;3.40;99.90;;;;;;1895767;76;21050;-75
2022/02/26 04:19:29;;;;;;;14.00;4.42;;;3.30;99.90;;;;;;1895707;75;21050;-76
2022/02/26 04:21:57;;;;;;;11.25;5.00;;;3.30;99.90;;;;;;1895793;76;21034;-75
2022/02/26 04:24:25;;;;;;;21.10;4.78;;;3.30;99.90;;;;;;1896002;76;21438;-76
2022/02/26 04:26:53;;;;;;;15.15;5.30;;;3.20;99.90;;;;;;1895773;76;21489;-75
2022/02/26 04:29:20;;;;;;;8.48;4.75;;;3.20;99.90;;;;;;1895761;76;21111;-76
2022/02/26 04:31:47;;;;;;;12.10;4.53;;;3.30;99.90;;;;;;1895671;75;21143;-75
2022/02/26 04:34:15;;;;;;;12.47;5.35;;;3.30;99.90;;;;;;1895647;76;21111;-75
2022/02/26 04:36:42;;;;;;;11.57;4.58;;;3.20;99.90;;;;;;1895680;76;21065;-76
2022/02/26 04:39:09;;;;;;;13.35;5.28;;;3.20;99.90;;;;;;1896270;75;21449;-74
2022/02/26 04:41:36;;;;;;;12.45;4.90;;;3.20;99.90;;;;;;1895851;75;21033;-75
2022/02/26 04:44:04;;;;;;;6.15;4.30;;;3.20;99.90;;;;;;1895770;76;21446;-76
2022/02/26 04:46:31;;;;;;;11.83;5.30;;;3.10;99.90;;;;;;1895892;76;21036;-75
2022/02/26 04:48:58;;;;;;;10.95;5.08;;;3.10;99.90;;;;;;1895687;76;21248;-76
2022/02/26 04:51:26;;;;;;;10.50;5.67;;;3.00;99.90;;;;;;1895751;76;21045;-77
2022/02/26 04:53:53;;;;;;;10.60;5.10;;;3.10;99.90;;;;;;1895614;76;21037;-75
2022/02/26 04:56:20;;;;;;;20.70;5.62;;;3.10;99.90;;;;;;1895764;75;21530;-75
2022/02/26 04:58:47;;;;;;;8.63;5.10;;;3.00;99.90;;;;;;1895649;75;21061;-76
2022/02/26 05:01:15;;;;;;;10.00;5.15;;;3.00;99.90;;;;;;1895679;76;21504;-75
2022/02/26 05:03:43;;;;;;;13.53;5.30;;;3.00;99.90;;;;;;1895674;75;21045;-76
2022/02/26 05:06:11;;;;;;;10.95;4.72;;;3.00;99.90;;;;;;1895685;76;21135;-75
2022/02/26 05:08:38;;;;;;;11.08;5.00;;;3.00;99.90;;;;;;1895720;76;21145;-75
2022/02/26 05:11:05;;;;;;;10.98;5.05;;;3.00;99.90;;;;;;1895696;76;21438;-75
2022/02/26 05:13:33;;;;;;;14.80;4.72;;;3.00;99.90;;;;;;1895621;76;21108;-75
2022/02/26 05:16:00;;;;;;;11.90;5.25;;;3.10;99.90;;;;;;1895658;76;21034;-75
2022/02/26 05:18:27;;;;;;;10.18;4.50;;;3.10;99.90;;;;;;1895692;75;21453;-75
2022/02/26 05:20:55;;;;;;;12.78;4.47;;;3.00;99.90;;;;;;1895609;76;21111;-76
2022/02/26 05:23:22;;;;;;;11.75;4.95;;;3.10;99.90;;;;;;1895634;76;21127;-75
2022/02/26 05:25:49;;;;;;;18.77;5.83;;;3.10;99.90;;;;;;1895686;76;21123;-75
2022/02/26 05:28:16;;;;;;;11.63;4.78;;;3.00;99.90;;;;;;1895605;75;21015;-75
2022/02/26 05:30:44;;;;;;;9.60;5.20;;;3.00;99.90;;;;;;1895726;76;21050;-75
2022/02/26 05:33:11;;;;;;;9.40;4.95;;;3.00;99.90;;;;;;1895642;76;21038;-75
2022/02/26 05:35:38;;;;;;;11.33;5.03;;;3.00;99.90;;;;;;1895730;76;21567;-75
2022/02/26 05:38:06;;;;;;;9.85;4.78;;;3.10;99.90;;;;;;1885190;76;21081;-75
2022/02/26 05:40:33;;;;;;;11.28;5.15;;;3.10;99.90;;;;;;1874609;76;21015;-76
2022/02/26 05:43:00;;;;;;;12.47;5.37;;;3.10;99.90;;;;;;1850983;77;21151;-76
2022/02/26 05:45:29;;;;;;;11.03;4.90;;;3.10;99.90;;;;;;1845892;77;21073;-76
2022/02/26 05:47:57;;;;;;;17.35;4.55;;;3.20;99.90;;;;;;1844284;77;21477;-76
2022/02/26 05:50:24;;;;;;;8.90;4.33;;;3.20;99.90;;;;;;1849634;77;21249;-75
2022/02/26 05:52:51;;;;;;;17.70;5.08;;;3.20;99.90;;;;;;1847965;77;21476;-76
2022/02/26 05:55:18;;;;;;;12.40;5.37;;;3.20;99.90;;;;;;1848083;77;21290;-76
2022/02/26 05:57:46;;;;;;;14.13;5.33;;;3.20;99.90;;;;;;1847217;77;21143;-76
2022/02/26 06:00:14;;;;;;;12.03;4.60;;;3.10;99.90;;;;;;1848585;77;21277;-76
2022/02/26 06:02:41;;;;;;;16.15;4.65;;;3.00;99.90;;;;;;1849177;77;21081;-76
2022/02/26 06:05:09;;;;;;;16.42;5.15;;;3.00;99.90;;;;;;1848667;77;21112;-75
2022/02/26 06:07:36;;;;;;;10.05;5.15;;;3.00;99.90;;;;;;1848763;77;21073;-76
2022/02/26 06:10:04;;;;;;;13.28;5.20;;;3.00;99.90;;;;;;1848244;77;21081;-76
2022/02/26 06:12:31;;;;;;;14.20;4.95;;;2.90;99.90;;;;;;1848306;77;21217;-77
2022/02/26 06:14:59;;;;;;;12.05;5.35;;;2.90;99.90;;;;;;1848424;77;21124;-77
2022/02/26 06:17:27;;;;;;;9.15;5.20;;;2.90;99.90;;;;;;1846462;77;21078;-76
2022/02/26 06:19:56;;;;;;;14.38;5.28;;;2.90;99.90;;;;;;1849596;77;21077;-76
2022/02/26 06:22:24;;;;;;;8.70;4.85;;;3.00;99.90;;;;;;1846955;77;21486;-75
2022/02/26 06:24:51;;;;;;;12.98;5.28;;;2.90;99.90;;;;;;1849139;76;21464;-76
2022/02/26 06:27:19;;;;;;;10.28;5.47;;;2.90;99.90;;;;;;1847106;77;21116;-77
2022/02/26 06:29:46;;;;;;;13.43;6.10;;;2.90;99.90;;;;;;1846313;77;21146;-76
2022/02/26 06:32:13;;;;;;;11.88;6.10;;;2.90;99.90;;;;;;1847675;77;21077;-76
2022/02/26 06:34:41;;;;;;;16.60;5.90;;;2.90;99.90;;;;;;1849125;77;21045;-75
2022/02/26 06:37:08;;;;;;;11.60;5.47;;;2.90;99.90;;;;;;1846067;77;21197;-75
2022/02/26 06:39:35;;;;;;;9.40;5.33;;;3.10;99.90;;;;;;1846746;77;21065;-76
2022/02/26 06:42:03;;;;;;;12.33;5.20;;;3.20;99.90;;;;;;1846440;77;21587;-76
2022/02/26 06:44:30;;;;;;;15.20;5.70;;;3.20;99.90;;;;;;1846741;77;21085;-76
2022/02/26 06:46:57;;;;;;;12.07;5.15;;;3.20;99.90;;;;;;1847235;77;21050;-76
2022/02/26 06:49:24;;;;;;;14.95;5.78;;;3.30;99.90;;;;;;1849468;77;21415;-76
2022/02/26 06:51:52;;;;;;;8.28;5.45;;;3.30;99.90;;;;;;1845889;77;21080;-76
2022/02/26 06:54:19;;;;;;;13.98;6.08;;;3.40;99.90;;;;;;1849590;77;21186;-77
2022/02/26 06:56:46;;;;;;;10.80;6.05;;;3.40;99.90;;;;;;1845902;77;21080;-76
2022/02/26 06:59:14;;;;;;;19.23;5.75;;;3.50;99.90;;;;;;1846164;77;21045;-75
2022/02/26 07:01:45;;;;;;;16.23;7.05;;;3.50;99.90;;;;;;1845795;77;21172;-76
2022/02/26 07:04:10;;;;;;;18.77;7.22;;;3.60;99.90;;;;;;1850662;77;21057;-77
2022/02/26 07:06:42;;;;;;;18.12;6.67;;;3.50;99.90;;;;;;1847798;76;21551;-76
2022/02/26 07:09:06;;;;;;;25.25;11.30;;;3.50;99.90;;;;;;1845945;76;21117;-77
2022/02/26 07:11:34;;;;;;;24.52;8.60;;;3.50;99.90;;;;;;1841233;76;21085;-77
2022/02/26 07:14:01;;;;;;;17.42;6.55;;;3.50;99.90;;;;;;1846907;76;21077;-76
2022/02/26 07:16:28;;;;;;;17.48;6.58;;;3.50;99.90;;;;;;1850580;76;21449;-76
2022/02/26 07:18:57;;;;;;;19.92;7.65;;;3.60;99.90;;;;;;1846951;76;21062;-76
2022/02/26 07:21:24;;;;;;;16.52;7.42;;;3.60;99.90;;;;;;1848928;77;21050;-76
2022/02/26 07:23:53;;;;;;;18.00;7.40;;;3.70;99.90;;;;;;1846436;77;21164;-76
2022/02/26 07:26:20;;;;;;;16.70;6.92;;;3.80;99.90;;;;;;1847126;76;21562;-77
2022/02/26 07:28:47;;;;;;;16.12;7.05;;;3.90;99.90;;;;;;1850482;77;21069;-76
2022/02/26 07:31:16;;;;;;;18.30;7.50;;;3.90;99.90;;;;;;1851920;75;21402;-76
2022/02/26 07:33:44;;;;;;;15.90;7.00;;;3.90;99.90;;;;;;1850344;77;21518;-77
2022/02/26 07:36:11;;;;;;;17.95;7.25;;;3.90;99.90;;;;;;1846676;76;21143;-76
2022/02/26 07:38:43;;;;;;;16.05;7.45;;;3.90;99.90;;;;;;1846055;76;21170;-77
2022/02/26 07:41:10;;;;;;;12.70;6.85;;;3.80;99.90;;;;;;1846388;76;21108;-77
2022/02/26 07:43:38;;;;;;;18.92;7.22;;;3.90;99.90;;;;;;1848254;77;21131;-77
2022/02/26 07:46:06;;;;;;;12.35;6.75;;;3.90;99.90;;;;;;1849120;77;21429;-75
2022/02/26 07:48:33;;;;;;;23.07;6.95;;;4.00;99.90;;;;;;1848076;77;21057;-75
2022/02/26 07:51:01;;;;;;;15.70;6.42;;;4.00;99.90;;;;;;1849583;77;21143;-75
2022/02/26 07:53:28;;;;;;;14.65;6.12;;;4.00;99.90;;;;;;1852115;77;21108;-75
2022/02/26 07:56:06;;;;;;;10.70;5.55;;;4.20;99.90;;;;;;1842471;76;21046;-74
2022/02/26 07:58:34;;;;;;;18.10;6.78;;;4.00;99.90;;;;;;1847805;77;21143;-76
2022/02/26 08:01:03;;;;;;;12.35;5.65;;;4.00;99.90;;;;;;1847492;76;21085;-76
2022/02/26 08:03:31;;;;;;;19.57;5.75;;;4.10;99.90;;;;;;1847329;76;21457;-77
2022/02/26 08:05:58;;;;;;;13.38;5.15;;;4.10;99.90;;;;;;1848529;76;21054;-77
2022/02/26 08:08:25;;;;;;;11.95;5.92;;;4.10;99.90;;;;;;1848579;76;21135;-76
2022/02/26 08:10:53;;;;;;;19.02;5.05;;;4.20;99.90;;;;;;1842331;76;21935;-78
2022/02/26 08:13:20;;;;;;;19.50;6.22;;;4.20;99.90;;;;;;1847131;76;21069;-77
2022/02/26 08:15:49;;;;;;;14.87;5.60;;;4.20;99.90;;;;;;1846488;76;21139;-76
2022/02/26 08:18:17;;;;;;;12.03;5.90;;;4.40;99.90;;;;;;1848852;76;21152;-77
2022/02/26 08:20:44;;;;;;;14.28;5.75;;;4.40;99.90;;;;;;1848073;77;21200;-77
2022/02/26 08:23:11;;;;;;;14.55;6.65;;;4.20;99.90;;;;;;1846804;77;21469;-78
2022/02/26 08:25:39;;;;;;;16.20;6.17;;;4.20;99.90;;;;;;1846763;77;21167;-77
2022/02/26 08:28:07;;;;;;;14.68;6.35;;;4.40;99.90;;;;;;1847772;76;21049;-76
2022/02/26 08:30:34;;;;;;;13.20;5.97;;;4.50;99.90;;;;;;1851325;77;21453;-76
2022/02/26 08:33:02;;;;;;;11.25;5.67;;;4.70;99.90;;;;;;1853896;77;21180;-76
2022/02/26 08:35:29;;;;;;;10.00;5.08;;;4.70;99.90;;;;;;1847726;76;21195;-77
2022/02/26 08:37:56;;;;;;;15.38;5.85;;;4.40;99.90;;;;;;1848251;76;21159;-75
2022/02/26 08:40:24;;;;;;;15.88;5.40;;;4.30;99.90;;;;;;1846789;76;21049;-77
2022/02/26 08:42:51;;;;;;;9.13;5.37;;;4.60;99.90;;;;;;1847286;77;21131;-76
2022/02/26 08:45:18;;;;;;;13.28;5.60;;;4.80;99.90;;;;;;1843042;76;21162;-77
2022/02/26 08:47:46;;;;;;;10.28;5.50;;;4.90;99.90;;;;;;1850020;77;21061;-77
2022/02/26 08:50:16;;;;;;;13.45;6.80;;;4.70;99.90;;;;;;1852706;77;21069;-77
2022/02/26 08:52:43;;;;;;;16.30;5.72;;;4.90;99.90;;;;;;1849397;77;21101;-77
2022/02/26 08:55:10;;;;;;;11.63;5.17;;;4.80;99.90;;;;;;1848164;77;21528;-77
2022/02/26 08:57:38;;;;;;;18.57;5.50;;;4.90;99.90;;;;;;1846912;77;21482;-77
2022/02/26 09:00:07;;;;;;;11.68;5.87;;;4.60;99.90;;;;;;1848223;77;21068;-77
2022/02/26 09:02:34;;;;;;;11.22;4.90;;;4.80;99.90;;;;;;1846652;77;21085;-78
2022/02/26 09:05:01;;;;;;;10.28;5.15;;;4.80;99.90;;;;;;1847482;77;21434;-78
2022/02/26 09:07:29;;;;;;;12.28;5.40;;;4.80;99.90;;;;;;1850902;77;21123;-78
2022/02/26 09:09:56;;;;;;;16.97;5.17;;;5.10;99.90;;;;;;1849952;77;21059;-79
2022/02/26 09:12:23;;;;;;;20.27;5.00;;;5.30;99.90;;;;;;1850087;77;21184;-78
2022/02/26 09:14:53;;;;;;;11.57;3.47;;;5.50;99.90;;;;;;1852874;77;21138;-76
2022/02/26 09:17:20;;;;;;;10.27;2.57;;;5.70;99.90;;;;;;1853680;77;21116;-77
2022/02/26 09:19:54;;;;;;;8.43;2.77;;;5.50;99.90;;;;;;1847239;77;21104;-78
2022/02/26 09:22:22;;;;;;;10.72;2.70;;;5.50;99.90;;;;;;1850751;76;21108;-77
2022/02/26 09:24:50;;;;;;;8.25;2.12;;;5.60;99.90;;;;;;1848736;77;21121;-77
2022/02/26 09:27:17;;;;;;;5.55;1.42;;;5.60;99.90;;;;;;1846722;77;21159;-77
2022/02/26 09:29:45;;;;;;;6.83;2.00;;;5.70;99.90;;;;;;1847609;77;21596;-76
2022/02/26 09:32:12;;;;;;;7.22;1.98;;;5.80;99.90;;;;;;1847784;77;21532;-76
2022/02/26 09:34:40;;;;;;;5.60;1.75;;;5.80;99.90;;;;;;1848247;77;21206;-77
2022/02/26 09:37:07;;;;;;;11.30;2.40;;;5.90;99.90;;;;;;1847386;77;21130;-77
2022/02/26 09:39:34;;;;;;;9.03;1.87;;;5.90;99.90;;;;;;1848670;77;21158;-77
2022/02/26 09:42:02;;;;;;;11.00;1.90;;;5.70;99.90;;;;;;1887035;75;21143;-79
2022/02/26 09:44:30;;;;;;;7.25;2.05;;;5.90;99.90;;;;;;1890486;76;21105;-78
2022/02/26 09:46:58;;;;;;;7.20;1.82;;;6.00;99.90;;;;;;1890497;76;21426;-78
2022/02/26 09:49:26;;;;;;;5.50;1.35;;;6.10;99.90;;;;;;1890530;76;21090;-77
2022/02/26 09:51:53;;;;;;;7.03;1.92;;;6.00;99.90;;;;;;1890489;75;21063;-78
2022/02/26 09:54:21;;;;;;;8.10;1.90;;;5.70;99.90;;;;;;1890452;76;21014;-78
2022/02/26 09:56:48;;;;;;;10.53;1.70;;;5.70;99.90;;;;;;1890238;76;21095;-78
2022/02/26 09:59:17;;;;;;;11.30;2.42;;;5.70;99.90;;;;;;1890142;76;21506;-79
2022/02/26 10:01:59;;;;;;;5.45;2.33;;;6.30;99.90;;;;;;1890216;75;21003;-77
2022/02/26 10:04:28;;;;;;;14.30;2.08;;;6.90;99.90;;;;;;1846124;76;21049;-78
2022/02/26 10:06:59;;;;;;;6.35;1.72;;;7.70;99.90;;;;;;1846534;77;21073;-78
2022/02/26 10:09:27;;;;;;;9.15;2.08;;;7.80;99.90;;;;;;1859716;76;21193;-78
2022/02/26 10:11:57;;;;;;;5.85;1.82;;;8.10;99.90;;;;;;1854465;76;21144;-77
2022/02/26 10:14:24;;;;;;;8.28;2.05;;;8.80;99.90;;;;;;1848150;77;21516;-78
2022/02/26 10:16:54;;;;;;;9.93;1.75;;;8.60;99.90;;;;;;1846254;77;21053;-77
2022/02/26 10:19:26;;;;;;;6.40;1.82;;;9.00;99.90;;;;;;1853826;77;21088;-77
2022/02/26 10:22:02;;;;;;;13.43;2.27;;;9.00;99.90;;;;;;1848752;77;21165;-78
2022/02/26 10:24:30;;;;;;;12.85;1.80;;;8.80;99.90;;;;;;1846646;77;21293;-78
2022/02/26 10:27:08;;;;;;;3.08;1.17;;;8.40;99.90;;;;;;1845931;77;21146;-77
2022/02/26 10:29:40;;;;;;;7.37;2.00;;;8.60;99.90;;;;;;1841779;77;21482;-77
2022/02/26 10:32:05;;;;;;;17.55;2.08;;;8.90;99.90;;;;;;1847373;77;21142;-78
2022/02/26 10:34:41;;;;;;;3.00;1.30;;;8.80;99.90;;;;;;1822129;77;21075;-78
2022/02/26 10:37:19;;;;;;;11.95;1.75;;;8.20;99.90;;;;;;1850602;77;21135;-78
2022/02/26 10:39:51;;;;;;;6.17;1.47;;;7.90;99.90;;;;;;1849902;77;21077;-79
2022/02/26 10:42:25;;;;;;;7.15;1.90;;;8.90;99.90;;;;;;1861981;76;21175;-78
2022/02/26 10:45:09;;;;;;;8.60;1.90;;;9.00;99.90;;;;;;1861817;77;21060;-76
2022/02/26 10:47:38;;;;;;;10.65;1.75;;;8.30;99.90;;;;;;1862872;77;21030;-78
2022/02/26 10:50:19;;;;;;;8.38;1.90;;;7.90;99.90;;;;;;1862279;77;21019;-78
2022/02/26 10:53:04;;;;;;;10.98;1.67;;;8.10;99.90;;;;;;1862378;77;21027;-79
2022/02/26 10:55:51;;;;;;;3.12;1.30;;;6.90;99.90;;;;;;1839613;76;21135;-77
2022/02/26 10:58:23;;;;;;;6.58;1.67;;;6.50;99.90;;;;;;1874580;75;21054;-79
2022/02/26 11:00:52;;;;;;;6.78;2.02;;;6.80;99.90;;;;;;1865179;75;21510;-77
2022/02/26 11:03:21;;;;;;;8.25;2.15;;;7.40;99.90;;;;;;1854351;76;21069;-77
2022/02/26 11:05:48;;;;;;;9.48;1.60;;;7.20;99.90;;;;;;1854478;77;21476;-77
2022/02/26 11:08:16;;;;;;;4.58;1.70;;;7.30;99.90;;;;;;1848195;77;21146;-76
2022/02/26 11:10:45;;;;;;;7.72;1.90;;;7.00;99.90;;;;;;1847896;76;21085;-77
2022/02/26 11:13:13;;;;;;;11.63;1.27;;;7.00;99.90;;;;;;1850959;77;21143;-77
2022/02/26 11:15:42;;;;;;;4.58;1.47;;;7.20;99.90;;;;;;1849169;76;21076;-77
2022/02/26 11:18:09;;;;;;;7.80;1.85;;;7.50;99.90;;;;;;1848938;76;21118;-78
2022/02/26 11:20:37;;;;;;;7.62;1.67;;;7.70;99.90;;;;;;1851913;77;21481;-77
2022/02/26 11:23:05;;;;;;;10.80;2.12;;;8.70;99.90;;;;;;1846477;77;21154;-76
2022/02/26 11:25:32;;;;;;;7.53;1.67;;;9.50;99.90;;;;;;1849246;76;21520;-77
2022/02/26 11:28:00;;;;;;;6.90;2.02;;;9.90;99.90;;;;;;1852060;77;21120;-77
2022/02/26 11:30:32;;;;;;;6.00;1.80;;;10.60;99.90;;;;;;1848302;77;21081;-76
2022/02/26 11:33:00;;;;;;;5.45;1.70;;;10.50;99.90;;;;;;1869684;76;21073;-76
2022/02/26 11:35:28;;;;;;;6.25;1.77;;;10.30;99.30;;;;;;1863980;75;21081;-78
2022/02/26 11:38:03;;;;;;;7.95;1.77;;;10.90;99.80;;;;;;1847822;77;21069;-78
2022/02/26 11:40:26;;;;;;;8.73;1.67;;;10.50;96.70;;;;;;1847081;77;21147;-77
2022/02/26 11:42:55;;;;;;;5.80;1.80;;;10.10;97.20;;;;;;1847428;77;21069;-77
2022/02/26 11:45:24;;;;;;;6.75;1.72;;;10.50;97.90;;;;;;1854387;77;21064;-77
2022/02/26 11:48:01;;;;;;;8.58;2.05;;;10.20;97.60;;;;;;1850875;77;21068;-77
2022/02/26 11:50:32;;;;;;;6.58;1.70;;;10.20;98.70;;;;;;1848198;77;21184;-77
2022/02/26 11:53:20;;;;;;;6.50;1.72;;;9.30;99.20;;;;;;1848977;77;21065;-78
2022/02/26 11:55:54;;;;;;;5.12;1.45;;;8.90;99.90;;;;;;1850841;77;21084;-76
2022/02/26 11:58:26;;;;;;;4.87;1.40;;;9.00;99.90;;;;;;1849183;77;21128;-79
2022/02/26 12:00:57;;;;;;;10.20;2.05;;;8.80;99.90;;;;;;1851382;76;21159;-78
2022/02/26 12:03:33;;;;;;;7.65;1.70;;;8.40;99.90;;;;;;1854116;76;21088;-76
2022/02/26 12:06:13;;;;;;;4.47;1.62;;;7.90;99.90;;;;;;1855137;76;21201;-77
2022/02/26 12:08:56;;;;;;;7.10;1.80;;;7.60;99.90;;;;;;1849736;76;21154;-76
2022/02/26 12:11:36;;;;;;;7.03;1.67;;;7.70;99.90;;;;;;1904011;74;21062;-76
2022/02/26 12:14:11;;;;;;;5.53;1.80;;;7.70;99.90;;;;;;1889573;75;21080;-77
2022/02/26 12:16:39;;;;;;;8.08;2.10;;;7.50;99.90;;;;;;1855846;76;21041;-77
2022/02/26 12:19:20;;;;;;;7.67;1.82;;;7.60;99.90;;;;;;1896246;74;21040;-76
2022/02/26 12:21:52;;;;;;;7.28;1.87;;;7.50;99.90;;;;;;1862321;77;21037;-79
2022/02/26 12:24:21;;;;;;;6.65;1.67;;;7.50;99.90;;;;;;1862335;77;21138;-78
2022/02/26 12:27:07;;;;;;;10.03;2.22;;;7.70;99.90;;;;;;1862414;77;21108;-78
2022/02/26 12:29:47;;;;;;;5.33;1.75;;;7.80;99.90;;;;;;1862302;77;21036;-79
2022/02/26 12:32:22;;;;;;;8.30;1.72;;;7.90;99.90;;;;;;1877220;76;21041;-78
2022/02/26 12:35:07;;;;;;;7.42;1.92;;;8.10;99.90;;;;;;1896014;76;21029;-77
2022/02/26 12:37:45;;;;;;;12.98;2.12;;;8.20;99.90;;;;;;1895990;76;21076;-77
2022/02/26 12:40:14;;;;;;;9.58;1.98;;;7.90;99.90;;;;;;1862198;76;21026;-77
2022/02/26 12:42:44;;;;;;;8.03;2.08;;;7.90;99.90;;;;;;1895861;76;21037;-77
2022/02/26 12:45:13;;;;;;;7.87;1.72;;;8.40;99.90;;;;;;1861472;77;21044;-79
2022/02/26 12:47:41;;;;;;;7.55;2.12;;;8.60;99.90;;;;;;1862140;77;21158;-78
2022/02/26 12:50:10;;;;;;;11.28;1.90;;;8.50;99.90;;;;;;1862217;77;21037;-79
2022/02/26 12:52:38;;;;;;;6.30;2.05;;;8.80;99.90;;;;;;1862221;77;21037;-79
2022/02/26 12:55:07;;;;;;;5.20;1.72;;;9.50;99.90;;;;;;1862155;77;21417;-78
2022/02/26 12:57:36;;;;;;;25.77;2.40;;;9.90;99.90;;;;;;1862040;77;21045;-79
2022/02/26 13:00:07;;;;;;;6.80;1.90;;;11.00;99.90;;;;;;1861511;76;21009;-78
2022/02/26 13:02:54;;;;;;;8.13;1.67;;;10.90;97.40;;;;;;1862212;77;21481;-78